Time;durP1;ratioP1;P1;durP2;ratioP2;P2;SDS_P1;SDS_P2;PMS_P1;PMS_P2;Temp;Humidity;BMP_temperature;BMP_pressure;BME280_temperature;BME280_humidity;BME280_pressure;Samples;Min_cycle;Max_cycle;Signal;HPM_P1;HPM_P2
2024/03/17 00:01:26;;;;;;;;;;;;;;;;;;5054397;28;20335;-73
2024/03/17 00:03:52;;;;;;;;;;;;;;;;;;5053389;28;20323;-71
2024/03/17 00:06:18;;;;;;;;;;;;;;;;;;5054391;28;19909;-72
2024/03/17 00:08:44;;;;;;;;;;;;;;;;;;5054193;28;19924;-73
2024/03/17 00:11:10;;;;;;;;;;;;;;;;;;5053123;28;20376;-73
2024/03/17 00:13:36;;;;;;;;;;;;;;;;;;5054596;28;19909;-73
2024/03/17 00:16:02;;;;;;;;;;;;;;;;;;5053660;28;20376;-73
2024/03/17 00:18:28;;;;;;;;;;;;;;;;;;5054432;28;19909;-73
2024/03/17 00:20:54;;;;;;;;;;;;;;;;;;5054354;28;19916;-73
2024/03/17 00:23:20;;;;;;;;;;;;;;;;;;5053999;28;19952;-73
2024/03/17 00:25:46;;;;;;;;;;;;;;;;;;5053010;28;19909;-73
2024/03/17 00:28:12;;;;;;;;;;;;;;;;;;5054179;28;19916;-73
2024/03/17 00:30:38;;;;;;;;;;;;;;;;;;5053876;28;19915;-73
2024/03/17 00:33:03;;;;;;;;;;;;;;;;;;5054453;28;19909;-73
2024/03/17 00:35:30;;;;;;;;;;;;;;;;;;5054141;28;19915;-73
2024/03/17 00:37:56;;;;;;;;;;;;;;;;;;5053866;28;19916;-74
2024/03/17 00:40:22;;;;;;;;;;;;;;;;;;5053978;28;19909;-73
2024/03/17 00:42:48;;;;;;;;;;;;;;;;;;5052342;28;19931;-73
2024/03/17 00:45:14;;;;;;;;;;;;;;;;;;5053890;28;19968;-74
2024/03/17 00:47:40;;;;;;;;;;;;;;;;;;5053793;28;19924;-73
2024/03/17 00:50:08;;;;;;;;;;;;;;;;;;5052227;28;19908;-72
2024/03/17 00:52:34;;;;;;;;;;;;;;;;;;5053830;28;20383;-71
2024/03/17 00:55:00;;;;;;;;;;;;;;;;;;5054205;28;19909;-72
2024/03/17 00:57:26;;;;;;;;;;;;;;;;;;5053715;28;20414;-72
2024/03/17 00:59:52;;;;;;;;;;;;;;;;;;5054200;28;19916;-72
2024/03/17 01:02:18;;;;;;;;;;;;;;;;;;5052422;28;20448;-72
2024/03/17 01:04:44;;;;;;;;;;;;;;;;;;5053380;28;20093;-72
2024/03/17 01:07:10;;;;;;;;;;;;;;;;;;5053437;28;19921;-72
2024/03/17 01:09:36;;;;;;;;;;;;;;;;;;5053692;28;19944;-72
2024/03/17 01:12:02;;;;;;;;;;;;;;;;;;5052006;28;19909;-72
2024/03/17 01:14:28;;;;;;;;;;;;;;;;;;5053682;28;19915;-73
2024/03/17 01:16:54;;;;;;;;;;;;;;;;;;5052357;28;19955;-72
2024/03/17 01:19:20;;;;;;;;;;;;;;;;;;5053266;28;19909;-72
2024/03/17 01:21:46;;;;;;;;;;;;;;;;;;5053596;28;19916;-72
2024/03/17 01:24:12;;;;;;;;;;;;;;;;;;5053612;28;19909;-72
2024/03/17 01:26:38;;;;;;;;;;;;;;;;;;5053088;28;19908;-73
2024/03/17 01:29:05;;;;;;;;;;;;;;;;;;5055041;28;20407;-72
2024/03/17 01:31:30;;;;;;;;;;;;;;;;;;5057730;28;19943;-72
2024/03/17 01:33:56;;;;;;;;;;;;;;;;;;5057110;28;19917;-72
2024/03/17 01:36:22;;;;;;;;;;;;;;;;;;5057428;28;19913;-72
2024/03/17 01:38:48;;;;;;;;;;;;;;;;;;5057418;28;19995;-72
2024/03/17 01:41:15;;;;;;;;;;;;;;;;;;5057184;28;20082;-72
2024/03/17 01:43:41;;;;;;;;;;;;;;;;;;5057368;28;20323;-72
2024/03/17 01:46:07;;;;;;;;;;;;;;;;;;5057229;28;19909;-72
2024/03/17 01:48:33;;;;;;;;;;;;;;;;;;5057250;28;20420;-72
2024/03/17 01:50:59;;;;;;;;;;;;;;;;;;5057807;28;19956;-72
2024/03/17 01:53:25;;;;;;;;;;;;;;;;;;5056793;28;20307;-72
2024/03/17 01:55:51;;;;;;;;;;;;;;;;;;5057158;28;20288;-72
2024/03/17 01:58:17;;;;;;;;;;;;;;;;;;5057022;28;19985;-72
2024/03/17 02:00:43;;;;;;;;;;;;;;;;;;5056616;28;19916;-72
2024/03/17 02:03:09;;;;;;;;;;;;;;;;;;5057173;28;19916;-72
2024/03/17 02:05:35;;;;;;;;;;;;;;;;;;5057009;28;20004;-72
2024/03/17 02:08:01;;;;;;;;;;;;;;;;;;5056292;28;19920;-72
2024/03/17 02:10:27;;;;;;;;;;;;;;;;;;5056825;28;19916;-72
2024/03/17 02:12:53;;;;;;;;;;;;;;;;;;5056828;28;19908;-73
2024/03/17 02:15:19;;;;;;;;;;;;;;;;;;5056328;28;19915;-72
2024/03/17 02:17:45;;;;;;;;;;;;;;;;;;5056701;28;19913;-73
2024/03/17 02:20:11;;;;;;;;;;;;;;;;;;5056677;28;19915;-72
2024/03/17 02:22:37;;;;;;;;;;;;;;;;;;5056173;28;19940;-72
2024/03/17 02:25:03;;;;;;;;;;;;;;;;;;5056631;28;19948;-73
2024/03/17 02:27:29;;;;;;;;;;;;;;;;;;5056537;28;19917;-72
2024/03/17 02:29:55;;;;;;;;;;;;;;;;;;5056188;28;20288;-73
2024/03/17 02:32:22;;;;;;;;;;;;;;;;;;5056535;28;20324;-72
2024/03/17 02:34:48;;;;;;;;;;;;;;;;;;5056476;28;19916;-72
2024/03/17 02:37:14;;;;;;;;;;;;;;;;;;5055963;28;20292;-72
2024/03/17 02:39:40;;;;;;;;;;;;;;;;;;5055889;28;20269;-73
2024/03/17 02:42:06;;;;;;;;;;;;;;;;;;5056279;28;20337;-72
2024/03/17 02:44:32;;;;;;;;;;;;;;;;;;5056493;28;19913;-72
2024/03/17 02:46:58;;;;;;;;;;;;;;;;;;5056053;28;19982;-72
2024/03/17 02:49:24;;;;;;;;;;;;;;;;;;5056118;28;19946;-72
2024/03/17 02:51:50;;;;;;;;;;;;;;;;;;5056082;28;20296;-72
2024/03/17 02:54:16;;;;;;;;;;;;;;;;;;5056104;28;19915;-72
2024/03/17 02:56:42;;;;;;;;;;;;;;;;;;5055694;28;19909;-72
2024/03/17 02:59:08;;;;;;;;;;;;;;;;;;5056026;28;19991;-72
2024/03/17 03:01:34;;;;;;;;;;;;;;;;;;5055875;28;19955;-72
2024/03/17 03:04:00;;;;;;;;;;;;;;;;;;5055535;28;19909;-73
2024/03/17 03:06:26;;;;;;;;;;;;;;;;;;5055568;28;19909;-71
2024/03/17 03:08:52;;;;;;;;;;;;;;;;;;5056066;28;19964;-72
2024/03/17 03:11:18;;;;;;;;;;;;;;;;;;5055328;28;20364;-72
2024/03/17 03:13:44;;;;;;;;;;;;;;;;;;5055678;28;20008;-73
2024/03/17 03:16:10;;;;;;;;;;;;;;;;;;5055795;28;19916;-72
2024/03/17 03:18:36;;;;;;;;;;;;;;;;;;5055465;28;19962;-72
2024/03/17 03:21:02;;;;;;;;;;;;;;;;;;5055497;28;19908;-72
2024/03/17 03:23:28;;;;;;;;;;;;;;;;;;5055493;28;19909;-72
2024/03/17 03:25:54;;;;;;;;;;;;;;;;;;5055001;28;19912;-73
2024/03/17 03:28:20;;;;;;;;;;;;;;;;;;5055375;28;19925;-72
2024/03/17 03:30:46;;;;;;;;;;;;;;;;;;5055289;28;19915;-72
2024/03/17 03:33:12;;;;;;;;;;;;;;;;;;5054943;28;19944;-72
2024/03/17 03:35:38;;;;;;;;;;;;;;;;;;5055170;28;19909;-72
2024/03/17 03:38:04;;;;;;;;;;;;;;;;;;5053916;28;19916;-72
2024/03/17 03:40:30;;;;;;;;;;;;;;;;;;5054746;28;19915;-73
2024/03/17 03:42:56;;;;;;;;;;;;;;;;;;5055204;28;19909;-73
2024/03/17 03:45:22;;;;;;;;;;;;;;;;;;5055073;28;19939;-73
2024/03/17 03:47:48;;;;;;;;;;;;;;;;;;5053291;28;20399;-75
2024/03/17 03:50:14;;;;;;;;;;;;;;;;;;5055014;28;20331;-74
2024/03/17 03:52:41;;;;;;;;;;;;;;;;;;5053721;28;19955;-73
2024/03/17 03:55:07;;;;;;;;;;;;;;;;;;5054836;28;19916;-73
2024/03/17 03:57:36;;;;;;;;;;;;;;;;;;5054745;28;20369;-73
2024/03/17 04:00:05;;;;;;;;;;;;;;;;;;5054628;28;19925;-73
2024/03/17 04:02:33;;;;;;;;;;;;;;;;;;5054720;28;19913;-73
2024/03/17 04:04:59;;;;;;;;;;;;;;;;;;5054891;28;19916;-74
2024/03/17 04:07:25;;;;;;;;;;;;;;;;;;5053989;28;19925;-74
2024/03/17 04:09:51;;;;;;;;;;;;;;;;;;5054616;28;19909;-73
2024/03/17 04:12:17;;;;;;;;;;;;;;;;;;5054615;28;19947;-73
2024/03/17 04:14:44;;;;;;;;;;;;;;;;;;5054149;28;19970;-73
2024/03/17 04:17:11;;;;;;;;;;;;;;;;;;5053181;28;19912;-73
2024/03/17 04:19:37;;;;;;;;;;;;;;;;;;5054597;28;19915;-73
2024/03/17 04:22:02;;;;;;;;;;;;;;;;;;5054069;28;19909;-73
2024/03/17 04:24:28;;;;;;;;;;;;;;;;;;5053136;28;19908;-73
2024/03/17 04:26:54;;;;;;;;;;;;;;;;;;5054270;28;19920;-73
2024/03/17 04:29:20;;;;;;;;;;;;;;;;;;5052549;28;19912;-73
2024/03/17 04:31:48;;;;;;;;;;;;;;;;;;5054298;28;19944;-73
2024/03/17 04:34:14;;;;;;;;;;;;;;;;;;5054189;28;19908;-73
2024/03/17 04:36:40;;;;;;;;;;;;;;;;;;5052409;28;20353;-73
2024/03/17 04:39:08;;;;;;;;;;;;;;;;;;5054445;28;19908;-74
2024/03/17 04:41:34;;;;;;;;;;;;;;;;;;5053063;28;20258;-73
2024/03/17 04:43:59;;;;;;;;;;;;;;;;;;5053654;28;19915;-74
2024/03/17 04:46:26;;;;;;;;;;;;;;;;;;5053975;28;19908;-74
2024/03/17 04:48:52;;;;;;;;;;;;;;;;;;5054039;28;19916;-74
2024/03/17 04:51:18;;;;;;;;;;;;;;;;;;5053954;28;20362;-73
2024/03/17 04:53:43;;;;;;;;;;;;;;;;;;5052640;28;19917;-73
2024/03/17 04:56:09;;;;;;;;;;;;;;;;;;5053500;28;19916;-73
2024/03/17 04:58:35;;;;;;;;;;;;;;;;;;5054015;28;19908;-73
2024/03/17 05:01:01;;;;;;;;;;;;;;;;;;5053773;28;19909;-74
2024/03/17 05:03:27;;;;;;;;;;;;;;;;;;5052047;28;19962;-73
2024/03/17 05:05:53;;;;;;;;;;;;;;;;;;5053748;28;19909;-73
2024/03/17 05:08:19;;;;;;;;;;;;;;;;;;5053505;28;19932;-73
2024/03/17 05:10:45;;;;;;;;;;;;;;;;;;5053541;28;19917;-73
2024/03/17 05:13:11;;;;;;;;;;;;;;;;;;5053739;28;19916;-73
2024/03/17 05:15:37;;;;;;;;;;;;;;;;;;5052403;28;19918;-73
2024/03/17 05:18:03;;;;;;;;;;;;;;;;;;5052040;28;20003;-73
2024/03/17 05:20:29;;;;;;;;;;;;;;;;;;5053695;28;19948;-73
2024/03/17 05:22:55;;;;;;;;;;;;;;;;;;5053563;28;19966;-74
2024/03/17 05:25:21;;;;;;;;;;;;;;;;;;5053153;28;19916;-73
2024/03/17 05:27:47;;;;;;;;;;;;;;;;;;5053410;28;19999;-74
2024/03/17 05:30:13;;;;;;;;;;;;;;;;;;5053558;28;19967;-73
2024/03/17 05:32:39;;;;;;;;;;;;;;;;;;5052142;28;19909;-73
2024/03/17 05:35:05;;;;;;;;;;;;;;;;;;5053474;28;20331;-73
2024/03/17 05:37:31;;;;;;;;;;;;;;;;;;5053378;28;19920;-73
2024/03/17 05:39:57;;;;;;;;;;;;;;;;;;5053081;28;19909;-73
2024/03/17 05:42:23;;;;;;;;;;;;;;;;;;5053445;28;20062;-73
2024/03/17 05:44:49;;;;;;;;;;;;;;;;;;5053388;28;19909;-73
2024/03/17 05:47:15;;;;;;;;;;;;;;;;;;5052884;28;19956;-73
2024/03/17 05:49:42;;;;;;;;;;;;;;;;;;5053479;28;19959;-73
2024/03/17 05:52:08;;;;;;;;;;;;;;;;;;5052877;28;19908;-73
2024/03/17 05:54:34;;;;;;;;;;;;;;;;;;5053318;28;19909;-73
2024/03/17 05:57:00;;;;;;;;;;;;;;;;;;5053294;28;20411;-73
2024/03/17 05:59:26;;;;;;;;;;;;;;;;;;5053064;28;19952;-73
2024/03/17 06:01:52;;;;;;;;;;;;;;;;;;5053244;28;20388;-73
2024/03/17 06:04:18;;;;;;;;;;;;;;;;;;5053208;28;20499;-73
2024/03/17 06:06:44;;;;;;;;;;;;;;;;;;5051260;28;20372;-73
2024/03/17 06:09:10;;;;;;;;;;;;;;;;;;5053154;28;19915;-73
2024/03/17 06:11:36;;;;;;;;;;;;;;;;;;5053168;28;19909;-73
2024/03/17 06:14:06;;;;;;;;;;;;;;;;;;5052736;28;19995;-72
2024/03/17 06:16:32;;;;;;;;;;;;;;;;;;5056680;28;19913;-73
2024/03/17 06:18:57;;;;;;;;;;;;;;;;;;5057041;28;19954;-73
2024/03/17 06:21:24;;;;;;;;;;;;;;;;;;5055048;28;20392;-73
2024/03/17 06:23:49;;;;;;;;;;;;;;;;;;5056727;28;19909;-72
2024/03/17 06:26:15;;;;;;;;;;;;;;;;;;5056647;28;19916;-72
2024/03/17 06:28:42;;;;;;;;;;;;;;;;;;5056030;28;19924;-73
2024/03/17 06:31:10;;;;;;;;;;;;;;;;;;5056550;28;20069;-73
2024/03/17 06:33:35;;;;;;;;;;;;;;;;;;5056527;28;19916;-74
2024/03/17 06:36:04;;;;;;;;;;;;;;;;;;5056028;28;19909;-73
2024/03/17 06:38:30;;;;;;;;;;;;;;;;;;5055168;28;19947;-73
2024/03/17 06:40:56;;;;;;;;;;;;;;;;;;5056351;28;19909;-73
2024/03/17 06:43:22;;;;;;;;;;;;;;;;;;5055947;28;19970;-72
2024/03/17 06:45:48;;;;;;;;;;;;;;;;;;5056241;28;19931;-73
2024/03/17 06:48:13;;;;;;;;;;;;;;;;;;5056133;28;20380;-73
2024/03/17 06:50:40;;;;;;;;;;;;;;;;;;5054470;28;19944;-72
2024/03/17 06:53:06;;;;;;;;;;;;;;;;;;5054769;28;19909;-73
2024/03/17 06:55:32;;;;;;;;;;;;;;;;;;5055767;28;19909;-73
2024/03/17 06:57:58;;;;;;;;;;;;;;;;;;5056007;28;19962;-73
2024/03/17 07:00:25;;;;;;;;;;;;;;;;;;5055944;28;20006;-73
2024/03/17 07:02:51;;;;;;;;;;;;;;;;;;5055565;28;20325;-73
2024/03/17 07:05:17;;;;;;;;;;;;;;;;;;5055932;28;19952;-73
2024/03/17 07:07:43;;;;;;;;;;;;;;;;;;5055562;28;20015;-73
2024/03/17 07:10:11;;;;;;;;;;;;;;;;;;5055373;28;20385;-73
2024/03/17 07:12:36;;;;;;;;;;;;;;;;;;5055734;28;20387;-73
2024/03/17 07:15:02;;;;;;;;;;;;;;;;;;5055612;28;19909;-73
2024/03/17 07:17:28;;;;;;;;;;;;;;;;;;5053966;28;19908;-73
2024/03/17 07:19:54;;;;;;;;;;;;;;;;;;5055537;28;19917;-73
2024/03/17 07:22:22;;;;;;;;;;;;;;;;;;5055550;28;19909;-73
2024/03/17 07:24:50;;;;;;;;;;;;;;;;;;5055088;28;19932;-73
2024/03/17 07:27:16;;;;;;;;;;;;;;;;;;5055357;28;20353;-73
2024/03/17 07:29:41;;;;;;;;;;;;;;;;;;5055394;28;19948;-72
2024/03/17 07:32:07;;;;;;;;;;;;;;;;;;5055177;28;19909;-73
2024/03/17 07:34:35;;;;;;;;;;;;;;;;;;5055274;28;19916;-73
2024/03/17 07:37:02;;;;;;;;;;;;;;;;;;5055792;28;20349;-73
2024/03/17 07:39:32;;;;;;;;;;;;;;;;;;5054854;28;19932;-73
2024/03/17 07:41:58;;;;;;;;;;;;;;;;;;5055177;28;19909;-73
2024/03/17 07:44:24;;;;;;;;;;;;;;;;;;5055318;28;19909;-73
2024/03/17 07:46:50;;;;;;;;;;;;;;;;;;5053348;28;20437;-73
2024/03/17 07:49:16;;;;;;;;;;;;;;;;;;5055004;28;20369;-73
2024/03/17 07:51:43;;;;;;;;;;;;;;;;;;5053230;28;19916;-73
2024/03/17 07:54:09;;;;;;;;;;;;;;;;;;5054911;28;19908;-73
2024/03/17 07:56:35;;;;;;;;;;;;;;;;;;5054934;28;19996;-73
2024/03/17 07:59:01;;;;;;;;;;;;;;;;;;5053102;28;20379;-73
2024/03/17 08:01:27;;;;;;;;;;;;;;;;;;5055167;28;20266;-73
2024/03/17 08:03:56;;;;;;;;;;;;;;;;;;5055071;28;19909;-74
2024/03/17 08:06:22;;;;;;;;;;;;;;;;;;5052847;28;20328;-72
2024/03/17 08:08:48;;;;;;;;;;;;;;;;;;5054705;28;19917;-74
2024/03/17 08:11:14;;;;;;;;;;;;;;;;;;5054520;28;19963;-73
2024/03/17 08:13:40;;;;;;;;;;;;;;;;;;5054145;28;19909;-73
2024/03/17 08:16:06;;;;;;;;;;;;;;;;;;5054433;28;19916;-75
2024/03/17 08:18:32;;;;;;;;;;;;;;;;;;5054440;28;19912;-72
2024/03/17 08:20:58;;;;;;;;;;;;;;;;;;5052665;28;19909;-73
2024/03/17 08:23:24;;;;;;;;;;;;;;;;;;5054355;28;19915;-72
2024/03/17 08:25:50;;;;;;;;;;;;;;;;;;5054533;28;20353;-74
2024/03/17 08:28:15;;;;;;;;;;;;;;;;;;5053801;28;19917;-73
2024/03/17 08:30:42;;;;;;;;;;;;;;;;;;5054368;28;19947;-72
2024/03/17 08:33:09;;;;;;;;;;;;;;;;;;5054217;28;20039;-73
2024/03/17 08:36:01;;;;;;;;;;;;;;;;;;5103245;27;19917;-74
2024/03/17 08:38:47;;;;;;;;;;;;;;;;;;5104235;27;19919;-74
2024/03/17 08:41:13;;;;;;;;;;;;;;;;;;5070752;28;20400;-74
2024/03/17 08:46:03;;;;;;;;;;;;;;;;;;5104723;27;19913;-74
2024/03/17 08:48:30;;;;;;;;;;;;;;;;;;5070753;28;20368;-73
2024/03/17 08:50:56;;;;;;;;;;;;;;;;;;5071164;28;19915;-74
2024/03/17 08:53:22;;;;;;;;;;;;;;;;;;5069900;28;20011;-73
2024/03/17 08:55:48;;;;;;;;;;;;;;;;;;5070615;28;19951;-73
2024/03/17 08:58:14;;;;;;;;;;;;;;;;;;5069642;28;19920;-73
2024/03/17 09:02:53;;;;;;;;;;;;;;;;;;5103331;27;20280;-73
2024/03/17 09:05:19;;;;;;;;;;;;;;;;;;5071143;28;19913;-73
2024/03/17 09:07:45;;;;;;;;;;;;;;;;;;5070130;28;19909;-73
2024/03/17 09:13:09;;;;;;;;;;;;;;;;;;5104483;27;19913;-74
2024/03/17 09:17:23;;;;;;;;;;;;;;;;;;5103807;27;19917;-74
2024/03/17 09:22:21;;;;;;;;;;;;;;;;;;5104568;27;20446;-73
2024/03/17 09:24:47;;;;;;;;;;;;;;;;;;5070767;28;19917;-73
2024/03/17 09:27:18;;;;;;;;;;;;;;;;;;5071011;28;19909;-74
2024/03/17 09:29:44;;;;;;;;;;;;;;;;;;5071023;28;20369;-74
2024/03/17 09:32:15;;;;;;;;;;;;;;;;;;5070646;28;19908;-73
2024/03/17 09:34:52;;;;;;;;;;;;;;;;;;5104372;27;19913;-74
2024/03/17 09:37:18;;;;;;;;;;;;;;;;;;5069573;28;19919;-73
2024/03/17 09:39:44;;;;;;;;;;;;;;;;;;5071080;28;19909;-73
2024/03/17 09:42:10;;;;;;;;;;;;;;;;;;5071054;28;19908;-73
2024/03/17 09:47:08;;;;;;;;;;;;;;;;;;5104180;27;19913;-74
2024/03/17 09:49:34;;;;;;;;;;;;;;;;;;5071058;28;19919;-74
2024/03/17 09:52:00;;;;;;;;;;;;;;;;;;5069179;28;20416;-74
2024/03/17 09:54:26;;;;;;;;;;;;;;;;;;5071017;28;19915;-74
2024/03/17 09:56:52;;;;;;;;;;;;;;;;;;5069825;28;19909;-74
2024/03/17 09:59:18;;;;;;;;;;;;;;;;;;5070828;28;20417;-74
2024/03/17 10:01:47;;;;;;;;;;;;;;;;;;5069626;28;19913;-74
2024/03/17 10:04:13;;;;;;;;;;;;;;;;;;5070777;28;19944;-74
2024/03/17 10:06:39;;;;;;;;;;;;;;;;;;5069058;28;20046;-74
2024/03/17 10:11:17;;;;;;;;;;;;;;;;;;5104319;27;19919;-73
2024/03/17 10:13:43;;;;;;;;;;;;;;;;;;5070761;28;19945;-73
2024/03/17 10:16:09;;;;;;;;;;;;;;;;;;5069809;28;19908;-73
2024/03/17 10:20:02;;;;;;;;;;;;;;;;;;5103905;27;19913;-74
2024/03/17 10:22:28;;;;;;;;;;;;;;;;;;5071095;28;20261;-73
2024/03/17 10:26:50;;;;;;;;;;;;;;;;;;5091353;27;19916;-74
2024/03/17 10:29:16;;;;;;;;;;;;;;;;;;5091361;28;19927;-74
2024/03/17 10:31:42;;;;;;;;;;;;;;;;;;5090311;28;19913;-74
2024/03/17 10:34:08;;;;;;;;;;;;;;;;;;5090914;28;19951;-73
2024/03/17 10:37:25;;;;;;;;;;;;;;;;;;5153482;27;20005;-72
2024/03/17 10:39:51;;;;;;;;;;;;;;;;;;5152891;27;19916;-72
2024/03/17 10:42:17;;;;;;;;;;;;;;;;;;5133854;27;19907;-74
2024/03/17 10:44:46;;;;;;;;;;;;;;;;;;5152865;27;19907;-74
2024/03/17 10:49:15;;;;;;;;;;;;;;;;;;5131968;27;19911;-73
2024/03/17 10:52:35;;;;;;;;;;;;;;;;;;5112226;27;19934;-74
2024/03/17 10:55:01;;;;;;;;;;;;;;;;;;5093027;28;20257;-74
2024/03/17 10:57:27;;;;;;;;;;;;;;;;;;5093406;28;19908;-74
2024/03/17 10:59:53;;;;;;;;;;;;;;;;;;5111512;28;20074;-73
2024/03/17 11:02:19;;;;;;;;;;;;;;;;;;5092900;28;19908;-74
2024/03/17 11:06:31;;;;;;;;;;;;;;;;;;5091462;27;19916;-73
2024/03/17 11:10:43;;;;;;;;;;;;;;;;;;5111317;27;20322;-73
2024/03/17 11:13:09;;;;;;;;;;;;;;;;;;5111737;28;20003;-73
2024/03/17 11:15:38;;;;;;;;;;;;;;;;;;5111282;28;20010;-73
2024/03/17 11:18:04;;;;;;;;;;;;;;;;;;5111738;28;20417;-75
2024/03/17 11:20:30;;;;;;;;;;;;;;;;;;5110321;28;19912;-73
2024/03/17 11:25:54;;;;;;;;;;;;;;;;;;5111895;27;19916;-74
2024/03/17 11:28:20;;;;;;;;;;;;;;;;;;5110349;28;20344;-72
2024/03/17 11:30:47;;;;;;;;;;;;;;;;;;5111285;28;19947;-73
2024/03/17 11:33:40;;;;;;;;;;;;;;;;;;5091387;27;19922;-73
2024/03/17 11:36:06;;;;;;;;;;;;;;;;;;5091328;28;20002;-74
2024/03/17 11:38:32;;;;;;;;;;;;;;;;;;5090837;28;19909;-74
2024/03/17 11:40:58;;;;;;;;;;;;;;;;;;5091449;28;19938;-73
2024/03/17 11:43:24;;;;;;;;;;;;;;;;;;5091227;28;20360;-73
2024/03/17 11:45:49;;;;;;;;;;;;;;;;;;5090948;28;20364;-74
2024/03/17 11:48:15;;;;;;;;;;;;;;;;;;5091339;28;20288;-74
2024/03/17 11:53:34;;;;;;;;;;;;;;;;;;5124191;27;19997;-72
2024/03/17 12:00:10;;;;;;;;;;;;;;;;;;5153005;27;20375;-75
2024/03/17 12:02:36;;;;;;;;;;;;;;;;;;5134377;27;19911;-73
2024/03/17 12:05:02;;;;;;;;;;;;;;;;;;5152439;27;19931;-74
2024/03/17 12:07:30;;;;;;;;;;;;;;;;;;5134339;27;19943;-73
2024/03/17 12:10:47;;;;;;;;;;;;;;;;;;5092187;27;19916;-73
2024/03/17 12:13:13;;;;;;;;;;;;;;;;;;5089660;28;19948;-73
2024/03/17 12:15:40;;;;;;;;;;;;;;;;;;5090085;28;20308;-74
2024/03/17 12:18:23;;;;;;;;;;;;;;;;;;5132424;27;20006;-73
2024/03/17 12:20:49;;;;;;;;;;;;;;;;;;5131848;28;19979;-73
2024/03/17 12:23:20;;;;;;;;;;;;;;;;;;5132124;28;19912;-72
2024/03/17 12:25:46;;;;;;;;;;;;;;;;;;5132211;28;19911;-74
2024/03/17 12:28:12;;;;;;;;;;;;;;;;;;5113546;28;19962;-73
2024/03/17 12:30:38;;;;;;;;;;;;;;;;;;5132061;28;19998;-72
2024/03/17 12:33:04;;;;;;;;;;;;;;;;;;5131536;28;20003;-73
2024/03/17 12:35:31;;;;;;;;;;;;;;;;;;5131945;28;19915;-73
2024/03/17 12:37:58;;;;;;;;;;;;;;;;;;5113418;28;19976;-73
2024/03/17 12:40:25;;;;;;;;;;;;;;;;;;5131506;28;19912;-73
2024/03/17 12:44:37;;;;;;;;;;;;;;;;;;5091854;27;20295;-73
2024/03/17 12:47:03;;;;;;;;;;;;;;;;;;5090859;28;19912;-75
2024/03/17 12:49:29;;;;;;;;;;;;;;;;;;5091293;28;19909;-74
2024/03/17 12:51:55;;;;;;;;;;;;;;;;;;5091315;28;19954;-74
2024/03/17 12:54:21;;;;;;;;;;;;;;;;;;5090763;28;20340;-74
2024/03/17 13:03:05;;;;;;;;;;;;;;;;;;5090951;27;19938;-72
2024/03/17 13:05:31;;;;;;;;;;;;;;;;;;5090117;28;20435;-73
2024/03/17 13:10:21;;;;;;;;;;;;;;;;;;5131787;27;20284;-74
2024/03/17 13:13:15;;;;;;;;;;;;;;;;;;5112236;27;19916;-72
2024/03/17 13:15:41;;;;;;;;;;;;;;;;;;5111332;28;19939;-72
2024/03/17 13:18:07;;;;;;;;;;;;;;;;;;5111599;28;19954;-73
2024/03/17 13:21:22;;;;;;;;;;;;;;;;;;5111975;27;19912;-73
2024/03/17 13:26:13;;;;;;;;;;;;;;;;;;5113043;27;19923;-72
2024/03/17 13:29:15;;;;;;;;;;;;;;;;;;5071537;28;19923;-74
2024/03/17 13:31:41;;;;;;;;;;;;;;;;;;5071263;28;20007;-72
2024/03/17 13:34:08;;;;;;;;;;;;;;;;;;5071406;28;20278;-73
2024/03/17 13:36:35;;;;;;;;;;;;;;;;;;5070865;28;19912;-72
2024/03/17 13:39:01;;;;;;;;;;;;;;;;;;5070940;28;19912;-73
2024/03/17 13:44:03;;;;;;;;;;;;;;;;;;5071152;28;19913;-72
2024/03/17 13:48:55;;;;;;;;;;;;;;;;;;5091587;27;19916;-73
2024/03/17 13:52:04;;;;;;;;;;;;;;;;;;5091128;27;19916;-73
2024/03/17 13:54:31;;;;;;;;;;;;;;;;;;5091347;28;19916;-73
2024/03/17 13:59:48;;;;;;;;;;;;;;;;;;5091824;27;19917;-72
2024/03/17 14:02:14;;;;;;;;;;;;;;;;;;5091335;28;20007;-73
2024/03/17 14:04:40;;;;;;;;;;;;;;;;;;5091017;28;19912;-73
2024/03/17 14:07:06;;;;;;;;;;;;;;;;;;5091346;28;19919;-73
2024/03/17 14:13:59;;;;;;;;;;;;;;;;;;5092244;28;19916;-72
2024/03/17 14:16:25;;;;;;;;;;;;;;;;;;5091327;28;19965;-73
2024/03/17 14:20:40;;;;;;;;;;;;;;;;;;5111344;27;19916;-73
2024/03/17 14:24:09;;;;;;;;;;;;;;;;;;5091861;27;19917;-73
2024/03/17 14:28:00;;;;;;;;;;;;;;;;;;5091521;27;19923;-72
2024/03/17 14:32:20;;;;;;;;;;;;;;;;;;5091757;27;20299;-74
2024/03/17 14:34:46;;;;;;;;;;;;;;;;;;5090935;28;20007;-73
2024/03/17 14:37:14;;;;;;;;;;;;;;;;;;5091265;28;20334;-74
2024/03/17 14:39:59;;;;;;;;;;;;;;;;;;5131957;27;19922;-73
2024/03/17 14:43:29;;;;;;;;;;;;;;;;;;4969654;28;19918;-72
2024/03/17 14:45:55;;;;;;;;;;;;;;;;;;4969136;28;20388;-73
2024/03/17 14:49:56;;;;;;;;;;;;;;;;;;5092209;27;19917;-72
2024/03/17 14:54:51;;;;;;;;;;;;;;;;;;5111493;27;19922;-74
2024/03/17 14:57:20;;;;;;;;;;;;;;;;;;5111768;28;19965;-72
2024/03/17 14:59:46;;;;;;;;;;;;;;;;;;5111665;28;19909;-73
2024/03/17 15:02:12;;;;;;;;;;;;;;;;;;5110023;28;19915;-74
2024/03/17 15:05:43;;;;;;;;;;;;;;;;;;5091659;27;19916;-75
2024/03/17 15:09:13;;;;;;;;;;;;;;;;;;5091070;27;19923;-74
2024/03/17 15:11:39;;;;;;;;;;;;;;;;;;5091530;28;19935;-75
2024/03/17 15:14:10;;;;;;;;;;;;;;;;;;5089898;28;20357;-74
2024/03/17 15:16:36;;;;;;;;;;;;;;;;;;5091007;28;19908;-72
2024/03/17 15:19:03;;;;;;;;;;;;;;;;;;5091253;28;19919;-72
2024/03/17 15:21:29;;;;;;;;;;;;;;;;;;5091781;28;19931;-73
2024/03/17 15:23:55;;;;;;;;;;;;;;;;;;5089357;28;20349;-73
2024/03/17 15:27:05;;;;;;;;;;;;;;;;;;5091736;27;19922;-73
2024/03/17 15:29:31;;;;;;;;;;;;;;;;;;5091033;28;20295;-72
2024/03/17 15:33:42;;;;;;;;;;;;;;;;;;5091611;27;19939;-73
2024/03/17 15:36:08;;;;;;;;;;;;;;;;;;5090930;28;19916;-73
2024/03/17 15:40:20;;;;;;;;;;;;;;;;;;5091473;27;19917;-73
2024/03/17 15:45:07;;;;;;;;;;;;;;;;;;5091556;27;19923;-73
2024/03/17 15:50:43;;;;;;;;;;;;;;;;;;5111847;27;19922;-74
2024/03/17 15:53:53;;;;;;;;;;;;;;;;;;5092028;27;19912;-74
2024/03/17 15:56:19;;;;;;;;;;;;;;;;;;5090088;28;20106;-73
2024/03/17 15:59:09;;;;;;;;;;;;;;;;;;5153157;27;19918;-72
2024/03/17 16:01:35;;;;;;;;;;;;;;;;;;5134407;27;20363;-74
2024/03/17 16:04:02;;;;;;;;;;;;;;;;;;5152636;27;19907;-73
2024/03/17 16:09:22;;;;;;;;;;;;;;;;;;5071638;28;19923;-73
2024/03/17 16:11:48;;;;;;;;;;;;;;;;;;5070789;28;19948;-73
2024/03/17 16:14:14;;;;;;;;;;;;;;;;;;5069901;28;19908;-73
2024/03/17 16:16:40;;;;;;;;;;;;;;;;;;5071077;28;19909;-73
2024/03/17 16:19:10;;;;;;;;;;;;;;;;;;5069392;28;20343;-73
2024/03/17 16:21:35;;;;;;;;;;;;;;;;;;5070933;28;19909;-73
2024/03/17 16:25:34;;;;;;;;;;;;;;;;;;5091139;27;19916;-72
2024/03/17 16:28:00;;;;;;;;;;;;;;;;;;5091357;28;20296;-74
2024/03/17 16:30:26;;;;;;;;;;;;;;;;;;5090053;28;19923;-74
2024/03/17 16:32:52;;;;;;;;;;;;;;;;;;5090912;28;19908;-74
2024/03/17 16:35:18;;;;;;;;;;;;;;;;;;5089970;28;19954;-74
2024/03/17 16:37:45;;;;;;;;;;;;;;;;;;5091201;28;19916;-74
2024/03/17 16:40:12;;;;;;;;;;;;;;;;;;5089467;28;20487;-73
2024/03/17 16:42:38;;;;;;;;;;;;;;;;;;5091045;28;19950;-74
2024/03/17 16:45:04;;;;;;;;;;;;;;;;;;5090967;28;19960;-75
2024/03/17 16:47:31;;;;;;;;;;;;;;;;;;5090871;28;19908;-74
2024/03/17 16:50:04;;;;;;;;;;;;;;;;;;5091269;28;19955;-74
2024/03/17 16:52:30;;;;;;;;;;;;;;;;;;5090881;28;19908;-74
2024/03/17 16:54:56;;;;;;;;;;;;;;;;;;5090554;28;19915;-74
2024/03/17 16:57:22;;;;;;;;;;;;;;;;;;5089561;28;20269;-73
2024/03/17 16:59:48;;;;;;;;;;;;;;;;;;5089415;28;19950;-74
2024/03/17 17:02:14;;;;;;;;;;;;;;;;;;5090366;28;19912;-74
2024/03/17 17:04:40;;;;;;;;;;;;;;;;;;5089403;28;19916;-74
2024/03/17 17:07:06;;;;;;;;;;;;;;;;;;5089396;28;19930;-74
2024/03/17 17:09:32;;;;;;;;;;;;;;;;;;5090213;28;19908;-74
2024/03/17 17:11:58;;;;;;;;;;;;;;;;;;5090906;28;20411;-73
2024/03/17 17:14:26;;;;;;;;;;;;;;;;;;5090069;28;20368;-74
2024/03/17 17:16:51;;;;;;;;;;;;;;;;;;5089419;28;20253;-74
2024/03/17 17:19:17;;;;;;;;;;;;;;;;;;5089417;28;19915;-74
2024/03/17 17:21:45;;;;;;;;;;;;;;;;;;5089975;28;20386;-74
2024/03/17 17:24:11;;;;;;;;;;;;;;;;;;5099376;28;19920;-74
2024/03/17 17:26:39;;;;;;;;;;;;;;;;;;5110598;28;19961;-73
2024/03/17 17:29:05;;;;;;;;;;;;;;;;;;5110165;28;20375;-73
2024/03/17 17:31:31;;;;;;;;;;;;;;;;;;5110564;28;19908;-73
2024/03/17 17:33:57;;;;;;;;;;;;;;;;;;5110432;28;19914;-73
2024/03/17 17:36:23;;;;;;;;;;;;;;;;;;5099300;28;19912;-73
2024/03/17 17:38:50;;;;;;;;;;;;;;;;;;5097086;28;19961;-75
2024/03/17 17:41:16;;;;;;;;;;;;;;;;;;5096804;28;19991;-72
2024/03/17 17:43:42;;;;;;;;;;;;;;;;;;5096155;28;20015;-73
2024/03/17 17:46:08;;;;;;;;;;;;;;;;;;5078536;28;19998;-72
2024/03/17 17:48:35;;;;;;;;;;;;;;;;;;5078357;28;19912;-72
2024/03/17 17:51:01;;;;;;;;;;;;;;;;;;5096186;28;20367;-72
2024/03/17 17:53:27;;;;;;;;;;;;;;;;;;5078463;28;19912;-72
2024/03/17 17:55:53;;;;;;;;;;;;;;;;;;5096498;28;19912;-72
2024/03/17 17:58:19;;;;;;;;;;;;;;;;;;5095998;28;20436;-72
2024/03/17 18:00:45;;;;;;;;;;;;;;;;;;5096393;28;20317;-73
2024/03/17 18:03:11;;;;;;;;;;;;;;;;;;5096450;28;20285;-72
2024/03/17 18:05:37;;;;;;;;;;;;;;;;;;5077736;28;19912;-73
2024/03/17 18:08:03;;;;;;;;;;;;;;;;;;5096205;28;19912;-74
2024/03/17 18:10:29;;;;;;;;;;;;;;;;;;5096256;28;20276;-74
2024/03/17 18:12:55;;;;;;;;;;;;;;;;;;5077708;28;19908;-73
2024/03/17 18:15:21;;;;;;;;;;;;;;;;;;5096080;28;20283;-72